createdAt,value
2018-10-18T00:00:35.276Z,87.46
2018-10-18T00:01:43.342Z,87.88
2018-10-18T00:02:51.414Z,87.40
2018-10-18T00:03:59.463Z,87.40
2018-10-18T00:05:07.527Z,87.36
2018-10-18T00:06:15.622Z,87.36
2018-10-18T00:07:23.663Z,87.27
2018-10-18T00:08:31.713Z,87.27
2018-10-18T00:09:39.763Z,86.93
2018-10-18T00:10:47.846Z,87.36
2018-10-18T00:11:55.951Z,87.65
2018-10-18T00:13:03.962Z,87.27
2018-10-18T00:14:12.120Z,87.55
2018-10-18T00:15:20.108Z,87.36
2018-10-18T00:16:28.135Z,87.46
2018-10-18T00:17:36.220Z,87.74
2018-10-18T00:18:44.276Z,87.74
2018-10-18T00:19:52.342Z,87.36
2018-10-18T00:21:00.431Z,87.36
2018-10-18T00:22:08.442Z,87.55
2018-10-18T00:23:16.527Z,87.65
2018-10-18T00:24:24.594Z,87.65
2018-10-18T00:25:32.656Z,87.65
2018-10-18T00:26:40.712Z,87.07
2018-10-18T00:27:48.755Z,87.84
2018-10-18T00:28:56.853Z,87.84
2018-10-18T00:30:04.919Z,87.74
2018-10-18T00:31:12.968Z,87.65
2018-10-18T00:32:21.033Z,87.36
2018-10-18T00:33:29.087Z,87.74
2018-10-18T00:34:37.175Z,87.40
2018-10-18T00:35:45.213Z,88.07
2018-10-18T00:36:53.276Z,87.98
2018-10-18T00:38:01.395Z,88.03
2018-10-18T00:39:09.404Z,87.98
2018-10-18T00:40:17.469Z,87.84
2018-10-18T00:41:25.536Z,87.69
2018-10-18T00:42:33.599Z,87.69
2018-10-18T00:43:41.672Z,87.50
2018-10-18T00:44:49.712Z,87.60
2018-10-18T00:45:57.791Z,87.46
2018-10-18T00:47:05.841Z,87.55
2018-10-18T00:48:14.013Z,87.84
2018-10-18T00:49:21.974Z,87.84
2018-10-18T00:50:30.025Z,87.98
2018-10-18T00:51:38.076Z,87.84
2018-10-18T00:52:46.163Z,87.65
2018-10-18T00:53:54.262Z,87.65
2018-10-18T00:55:02.295Z,88.60
2018-10-18T00:56:10.469Z,88.41
2018-10-18T00:57:18.390Z,88.03
2018-10-18T00:58:26.482Z,87.88
2018-10-18T00:59:34.529Z,88.17
2018-10-18T01:00:42.603Z,88.07
2018-10-18T01:01:50.668Z,87.69
2018-10-18T01:02:58.707Z,88.55
2018-10-18T01:04:06.798Z,87.60
2018-10-18T01:05:14.853Z,87.79
2018-10-18T01:06:22.916Z,87.69
2018-10-18T01:07:30.983Z,88.36
2018-10-18T01:08:39.039Z,87.79
2018-10-18T01:09:47.116Z,88.45
2018-10-18T01:10:55.169Z,88.26
2018-10-18T01:12:03.340Z,88.36
2018-10-18T01:13:11.280Z,88.26
2018-10-18T01:14:19.343Z,88.07
2018-10-18T01:15:27.407Z,88.17
2018-10-18T01:16:35.488Z,88.07
2018-10-18T01:17:43.548Z,88.36
2018-10-18T01:18:51.597Z,88.36
2018-10-18T01:19:59.713Z,88.07
2018-10-18T01:21:07.726Z,88.36
2018-10-18T01:22:15.793Z,88.26
2018-10-18T01:23:23.870Z,88.17
2018-10-18T01:24:31.916Z,88.26
2018-10-18T01:25:39.976Z,88.93
2018-10-18T01:26:48.030Z,88.17
2018-10-18T01:27:56.115Z,88.36
2018-10-18T01:29:04.174Z,88.07
2018-10-18T01:30:12.281Z,88.45
2018-10-18T01:31:20.307Z,88.07
2018-10-18T01:32:28.338Z,88.03
2018-10-18T01:33:36.411Z,88.31
2018-10-18T01:34:44.499Z,88.31
2018-10-18T01:35:52.576Z,88.55
2018-10-18T01:37:00.611Z,88.60
2018-10-18T01:38:08.722Z,88.31
2018-10-18T01:39:16.744Z,88.45
2018-10-18T01:40:24.804Z,88.60
2018-10-18T01:41:32.854Z,88.41
2018-10-18T01:42:40.921Z,88.41
2018-10-18T01:43:48.971Z,88.41
2018-10-18T01:44:57.044Z,88.41
2018-10-18T01:46:05.106Z,88.22
2018-10-18T01:47:13.171Z,88.60
2018-10-18T01:48:21.244Z,88.41
2018-10-18T01:49:29.307Z,88.89
2018-10-18T01:50:37.369Z,89.07
2018-10-18T01:51:45.417Z,88.89
2018-10-18T01:52:53.479Z,88.60
2018-10-18T01:54:01.604Z,88.70
2018-10-18T01:55:09.617Z,88.79
2018-10-18T01:56:17.667Z,88.79
2018-10-18T01:57:25.754Z,88.98
2018-10-18T01:58:33.813Z,88.79
2018-10-18T01:59:41.860Z,88.70
2018-10-18T02:00:49.927Z,88.98
2018-10-18T02:01:58.025Z,89.26
2018-10-18T02:03:06.063Z,89.26
2018-10-18T02:04:14.122Z,89.46
2018-10-18T02:05:22.173Z,89.55
2018-10-18T02:06:30.250Z,89.07
2018-10-18T02:07:38.296Z,89.55
2018-10-18T02:08:46.355Z,89.55
2018-10-18T02:09:54.435Z,89.94
2018-10-18T02:11:02.495Z,89.94
2018-10-18T02:12:10.717Z,89.65
2018-10-18T02:13:18.589Z,89.75
2018-10-18T02:14:26.683Z,90.03
2018-10-18T02:15:34.733Z,89.84
2018-10-18T02:16:42.808Z,89.65
2018-10-18T02:17:50.863Z,89.94
2018-10-18T02:18:58.949Z,89.84
2018-10-18T02:20:06.990Z,90.89
2018-10-18T02:21:15.062Z,90.50
2018-10-18T02:22:23.116Z,90.03
2018-10-18T02:23:31.184Z,90.79
2018-10-18T02:24:39.246Z,90.31
2018-10-18T02:25:47.309Z,90.41
2018-10-18T02:26:55.362Z,90.50
2018-10-18T02:28:03.428Z,90.31
2018-10-18T02:29:11.498Z,90.50
2018-10-18T02:30:19.640Z,90.60
2018-10-18T02:31:27.621Z,90.89
2018-10-18T02:32:35.688Z,90.50
2018-10-18T02:33:43.788Z,90.89
2018-10-18T02:34:51.815Z,91.08
2018-10-18T02:35:59.941Z,90.98
2018-10-18T02:37:07.936Z,90.60
2018-10-18T02:38:15.995Z,90.31
2018-10-18T02:39:24.058Z,90.89
2018-10-18T02:40:32.156Z,91.08
2018-10-18T02:41:40.190Z,90.84
2018-10-18T02:42:48.224Z,90.98
2018-10-18T02:43:56.302Z,90.98
2018-10-18T02:45:04.378Z,90.79
2018-10-18T02:46:12.428Z,90.94
2018-10-18T02:47:20.502Z,91.51
2018-10-18T02:48:28.547Z,91.41
2018-10-18T02:49:36.624Z,91.22
2018-10-18T02:50:44.692Z,90.75
2018-10-18T02:51:52.753Z,91.22
2018-10-18T02:53:00.819Z,91.22
2018-10-18T02:54:08.963Z,91.22
2018-10-18T02:55:16.930Z,91.03
2018-10-18T02:56:24.988Z,91.03
2018-10-18T02:57:33.057Z,91.22
2018-10-18T02:58:41.122Z,91.79
2018-10-18T02:59:49.176Z,91.99
2018-10-18T03:00:57.250Z,91.51
2018-10-18T03:02:05.291Z,91.60
2018-10-18T03:03:13.371Z,91.60
2018-10-18T03:04:21.431Z,91.41
2018-10-18T03:05:29.501Z,91.70
2018-10-18T03:06:37.560Z,91.41
2018-10-18T03:07:45.617Z,91.03
2018-10-18T03:08:53.680Z,91.60
2018-10-18T03:10:01.757Z,91.99
2018-10-18T03:11:09.803Z,91.70
2018-10-18T03:12:17.929Z,91.70
2018-10-18T03:13:25.944Z,91.79
2018-10-18T03:14:33.997Z,91.79
2018-10-18T03:15:42.078Z,91.89
2018-10-18T03:16:50.110Z,91.60
2018-10-18T03:17:58.252Z,91.31
2018-10-18T03:19:06.242Z,91.22
2018-10-18T03:20:14.306Z,91.31
2018-10-18T03:21:22.379Z,91.60
2018-10-18T03:22:30.435Z,91.60
2018-10-18T03:23:38.467Z,91.79
2018-10-18T03:24:46.560Z,92.08
2018-10-18T03:25:54.622Z,91.89
2018-10-18T03:27:02.679Z,91.79
2018-10-18T03:28:10.739Z,91.70
2018-10-18T03:29:18.783Z,92.27
2018-10-18T03:30:26.871Z,92.18
2018-10-18T03:31:34.947Z,91.60
2018-10-18T03:32:43.010Z,91.70
2018-10-18T03:33:51.069Z,92.27
2018-10-18T03:34:59.109Z,92.36
2018-10-18T03:36:07.279Z,92.27
2018-10-18T03:37:15.250Z,92.41
2018-10-18T03:38:23.303Z,92.36
2018-10-18T03:39:34.612Z,92.03
2018-10-18T03:40:39.431Z,92.41
2018-10-18T03:41:47.488Z,91.74
2018-10-18T03:42:55.569Z,92.13
2018-10-18T03:44:03.613Z,91.74
2018-10-18T03:45:11.680Z,91.17
2018-10-18T03:46:19.887Z,91.74
2018-10-18T03:47:27.903Z,91.17
2018-10-18T03:48:35.867Z,91.27
2018-10-18T03:49:43.936Z,91.17
2018-10-18T03:50:52.000Z,90.98
2018-10-18T03:52:00.055Z,90.98
2018-10-18T03:53:08.331Z,91.55
2018-10-18T03:54:16.329Z,90.22
2018-10-18T03:55:24.261Z,91.17
2018-10-18T03:56:32.317Z,90.79
2018-10-18T03:57:40.701Z,90.64
2018-10-18T03:58:48.411Z,90.41
2018-10-18T03:59:56.533Z,90.55
2018-10-18T04:01:04.569Z,89.65
2018-10-18T04:02:12.618Z,89.84
2018-10-18T04:03:20.694Z,89.75
2018-10-18T04:04:28.716Z,89.69
2018-10-18T04:05:37.192Z,89.84
2018-10-18T04:06:44.873Z,90.03
2018-10-18T04:07:52.935Z,89.84
2018-10-18T04:09:01.002Z,89.94
2018-10-18T04:10:09.053Z,90.60
2018-10-18T04:11:17.477Z,90.31
2018-10-18T04:12:25.766Z,90.55
2018-10-18T04:13:33.244Z,89.65
2018-10-18T04:14:41.536Z,89.75
2018-10-18T04:15:49.373Z,89.65
2018-10-18T04:16:57.444Z,90.41
2018-10-18T04:18:05.712Z,90.50
2018-10-18T04:19:13.564Z,90.50
2018-10-18T04:20:21.621Z,90.50
2018-10-18T04:21:29.672Z,90.41
2018-10-18T04:22:37.761Z,90.31
2018-10-18T04:23:46.124Z,90.31
2018-10-18T04:24:53.864Z,90.12
2018-10-18T04:26:02.364Z,90.50
2018-10-18T04:27:10.059Z,90.60
2018-10-18T04:28:18.047Z,90.89
2018-10-18T04:29:26.120Z,90.98
2018-10-18T04:30:34.184Z,90.98
2018-10-18T04:31:42.259Z,90.31
2018-10-18T04:32:50.311Z,91.08
2018-10-18T04:33:58.350Z,90.79
2018-10-18T04:35:07.127Z,90.60
2018-10-18T04:36:14.570Z,91.27
2018-10-18T04:37:22.569Z,90.79
2018-10-18T04:38:30.612Z,90.60
2018-10-18T04:39:38.669Z,90.98
2018-10-18T04:40:46.750Z,90.60
2018-10-18T04:41:54.815Z,90.98
2018-10-18T04:43:03.491Z,91.27
2018-10-18T04:44:10.939Z,90.98
2018-10-18T04:45:19.003Z,90.70
2018-10-18T04:46:27.065Z,90.98
2018-10-18T04:47:35.199Z,90.89
2018-10-18T04:48:43.215Z,90.50
2018-10-18T04:49:51.246Z,90.89
2018-10-18T04:50:59.309Z,91.17
2018-10-18T04:52:07.380Z,91.17
2018-10-18T04:53:15.428Z,90.98
2018-10-18T04:54:23.488Z,91.27
2018-10-18T04:55:31.546Z,91.08
2018-10-18T04:56:39.651Z,91.17
2018-10-18T04:57:47.685Z,91.46
2018-10-18T04:58:55.748Z,91.55
2018-10-18T05:00:03.812Z,90.98
2018-10-18T05:01:11.939Z,91.17
2018-10-18T05:02:19.932Z,91.46
2018-10-18T05:03:27.993Z,91.65
2018-10-18T05:04:36.045Z,91.65
2018-10-18T05:05:44.111Z,91.65
2018-10-18T05:06:52.233Z,92.41
2018-10-18T05:08:00.237Z,92.32
2018-10-18T05:09:08.285Z,92.27
2018-10-18T05:10:16.652Z,92.41
2018-10-18T05:11:24.515Z,92.79
2018-10-18T05:12:32.493Z,92.60
2018-10-18T05:13:40.543Z,92.32
2018-10-18T05:14:48.596Z,92.41
2018-10-18T05:15:56.682Z,92.41
2018-10-18T05:17:04.738Z,92.32
2018-10-18T05:18:12.804Z,92.27
2018-10-18T05:19:20.868Z,92.94
2018-10-18T05:20:28.912Z,92.74
2018-10-18T05:21:36.994Z,93.03
2018-10-18T05:22:45.054Z,92.36
2018-10-18T05:23:53.111Z,91.79
2018-10-18T05:25:01.290Z,92.36
2018-10-18T05:26:09.243Z,92.84
2018-10-18T05:27:17.317Z,92.55
2018-10-18T05:28:25.358Z,92.65
2018-10-18T05:29:33.546Z,92.46
2018-10-18T05:30:41.545Z,93.22
2018-10-18T05:31:49.655Z,92.94
2018-10-18T05:32:57.620Z,93.13
2018-10-18T05:34:05.695Z,93.60
2018-10-18T05:35:13.750Z,93.89
2018-10-18T05:36:21.824Z,94.27
2018-10-18T05:37:29.886Z,94.08
2018-10-18T05:38:37.914Z,94.56
2018-10-18T05:39:46.001Z,94.27
2018-10-18T05:40:54.065Z,95.03
2018-10-18T05:42:02.127Z,94.93
2018-10-18T05:43:10.253Z,94.84
2018-10-18T05:44:18.225Z,94.37
2018-10-18T05:45:26.306Z,94.37
2018-10-18T05:46:34.422Z,94.74
2018-10-18T05:47:42.442Z,94.65
2018-10-18T05:48:50.491Z,94.46
2018-10-18T05:49:58.543Z,94.37
2018-10-18T05:51:06.630Z,95.12
2018-10-18T05:52:14.700Z,95.32
2018-10-18T05:53:22.776Z,95.03
2018-10-18T05:54:30.817Z,95.51
2018-10-18T05:55:38.860Z,95.03
2018-10-18T05:56:46.944Z,95.51
2018-10-18T05:57:55.029Z,95.60
2018-10-18T05:59:03.058Z,95.51
2018-10-18T06:00:11.178Z,95.32
2018-10-18T06:01:19.367Z,95.70
2018-10-18T06:02:27.251Z,95.98
2018-10-18T06:03:35.310Z,95.60
2018-10-18T06:04:43.377Z,95.79
2018-10-18T06:05:51.474Z,95.41
2018-10-18T06:06:59.552Z,95.51
2018-10-18T06:08:07.553Z,95.41
2018-10-18T06:09:15.633Z,95.51
2018-10-18T06:10:23.803Z,95.32
2018-10-18T06:11:31.764Z,95.41
2018-10-18T06:12:39.807Z,95.22
2018-10-18T06:13:47.875Z,95.03
2018-10-18T06:14:55.955Z,94.93
2018-10-18T06:16:04.007Z,95.12
2018-10-18T06:17:12.073Z,94.98
2018-10-18T06:18:20.127Z,95.22
2018-10-18T06:19:28.164Z,94.93
2018-10-18T06:20:36.258Z,94.93
2018-10-18T06:21:44.308Z,94.84
2018-10-18T06:22:52.447Z,94.84
2018-10-18T06:24:00.431Z,94.93
2018-10-18T06:25:08.575Z,94.89
2018-10-18T06:26:16.569Z,95.65
2018-10-18T06:27:24.645Z,95.56
2018-10-18T06:28:32.688Z,95.17
2018-10-18T06:29:40.752Z,95.56
2018-10-18T06:30:48.829Z,95.75
2018-10-18T06:31:56.876Z,95.56
2018-10-18T06:33:05.032Z,95.65
2018-10-18T06:34:13.016Z,95.65
2018-10-18T06:35:21.091Z,95.56
2018-10-18T06:36:29.127Z,94.89
2018-10-18T06:37:37.264Z,95.65
2018-10-18T06:38:45.257Z,95.27
2018-10-18T06:39:53.356Z,95.36
2018-10-18T06:41:01.437Z,95.46
2018-10-18T06:42:09.446Z,95.46
2018-10-18T06:43:17.605Z,95.70
2018-10-18T06:44:25.567Z,94.93
2018-10-18T06:45:33.635Z,94.74
2018-10-18T06:46:41.708Z,94.84
2018-10-18T06:47:49.966Z,94.56
2018-10-18T06:48:57.938Z,93.98
2018-10-18T06:50:05.903Z,93.46
2018-10-18T06:51:14.023Z,92.60
2018-10-18T06:52:22.036Z,91.64
2018-10-18T06:53:30.092Z,91.83
2018-10-18T06:54:38.127Z,91.36
2018-10-18T06:55:46.241Z,90.69
2018-10-18T06:56:54.281Z,90.45
2018-10-18T06:58:02.336Z,90.55
2018-10-18T06:59:10.405Z,89.69
2018-10-18T07:00:18.492Z,89.50
2018-10-18T07:01:26.541Z,89.78
2018-10-18T07:02:34.589Z,89.88
2018-10-18T07:03:42.662Z,89.88
2018-10-18T07:04:50.720Z,89.40
2018-10-18T07:05:58.825Z,89.69
2018-10-18T07:07:06.847Z,88.87
2018-10-18T07:08:14.916Z,88.97
2018-10-18T07:09:22.989Z,88.49
2018-10-18T07:10:31.039Z,88.40
2018-10-18T07:11:39.125Z,87.92
2018-10-18T07:12:47.178Z,87.92
2018-10-18T07:13:55.249Z,87.73
2018-10-18T07:15:03.317Z,87.73
2018-10-18T07:16:11.375Z,87.73
2018-10-18T07:17:19.458Z,87.73
2018-10-18T07:18:27.506Z,87.54
2018-10-18T07:19:35.574Z,87.68
2018-10-18T07:20:43.639Z,86.05
2018-10-18T07:21:51.702Z,86.34
2018-10-18T07:22:59.764Z,86.53
2018-10-18T07:24:07.896Z,86.43
2018-10-18T07:25:15.911Z,85.77
2018-10-18T07:26:23.959Z,86.34
2018-10-18T07:27:32.028Z,85.19
2018-10-18T07:28:40.089Z,84.91
2018-10-18T07:29:48.162Z,85.38
2018-10-18T07:30:56.238Z,84.38
2018-10-18T07:32:04.279Z,83.90
2018-10-18T07:33:12.353Z,84.19
2018-10-18T07:34:20.418Z,84.09
2018-10-18T07:35:28.463Z,83.51
2018-10-18T07:36:36.561Z,83.13
2018-10-18T07:37:44.620Z,82.84
2018-10-18T07:38:52.679Z,83.33
2018-10-18T07:40:00.754Z,83.61
2018-10-18T07:41:08.895Z,82.89
2018-10-18T07:42:17.047Z,82.98
2018-10-18T07:43:24.938Z,82.79
2018-10-18T07:44:33.014Z,82.51
2018-10-18T07:45:41.076Z,81.65
2018-10-18T07:46:49.184Z,81.65
2018-10-18T07:47:57.251Z,81.55
2018-10-18T07:49:05.274Z,81.84
2018-10-18T07:50:13.337Z,81.65
2018-10-18T07:51:21.403Z,81.45
2018-10-18T07:52:29.465Z,81.55
2018-10-18T07:53:37.710Z,81.26
2018-10-18T07:54:45.593Z,82.03
2018-10-18T07:55:53.664Z,81.55
2018-10-18T07:57:01.737Z,81.74
2018-10-18T07:58:09.865Z,81.36
2018-10-18T07:59:17.854Z,80.50
2018-10-18T08:00:25.941Z,80.98
2018-10-18T08:01:33.989Z,80.69
2018-10-18T08:02:42.075Z,81.26
2018-10-18T08:03:50.133Z,80.98
2018-10-18T08:04:58.175Z,80.69
2018-10-18T08:06:06.250Z,80.88
2018-10-18T08:07:14.413Z,81.26
2018-10-18T08:08:22.397Z,81.45
2018-10-18T08:09:30.468Z,80.73
2018-10-18T08:10:38.492Z,80.82
2018-10-18T08:11:46.591Z,81.88
2018-10-18T08:12:54.709Z,81.59
2018-10-18T08:14:02.722Z,80.06
2018-10-18T08:15:10.778Z,80.92
2018-10-18T08:16:18.825Z,80.63
2018-10-18T08:17:26.971Z,80.44
2018-10-18T08:18:34.990Z,79.68
2018-10-18T08:19:43.052Z,80.25
2018-10-18T08:20:51.129Z,79.87
2018-10-18T08:21:59.185Z,79.49
2018-10-18T08:23:07.245Z,78.72
2018-10-18T08:24:15.321Z,78.66
2018-10-18T08:25:23.388Z,78.66
2018-10-18T08:26:31.456Z,78.66
2018-10-18T08:27:39.520Z,78.76
2018-10-18T08:28:47.581Z,78.19
2018-10-18T08:29:55.647Z,77.13
2018-10-18T08:31:03.760Z,77.51
2018-10-18T08:32:11.799Z,78.09
2018-10-18T08:33:19.866Z,76.84
2018-10-18T08:34:27.919Z,76.84
2018-10-18T08:35:35.993Z,77.17
2018-10-18T08:36:44.061Z,76.89
2018-10-18T08:37:52.267Z,76.21
2018-10-18T08:39:00.193Z,75.45
2018-10-18T08:40:08.236Z,75.07
2018-10-18T08:41:16.337Z,74.87
2018-10-18T08:42:24.394Z,74.87
2018-10-18T08:43:32.455Z,74.40
2018-10-18T08:44:40.536Z,75.73
2018-10-18T08:45:48.573Z,76.02
2018-10-18T08:46:56.665Z,76.21
2018-10-18T08:48:04.733Z,73.44
2018-10-18T08:49:12.869Z,75.26
2018-10-18T08:50:20.864Z,74.11
2018-10-18T08:51:28.917Z,73.91
2018-10-18T08:52:36.994Z,73.19
2018-10-18T08:53:45.071Z,72.99
2018-10-18T08:54:53.148Z,73.38
2018-10-18T08:56:01.229Z,72.42
2018-10-18T08:57:09.270Z,73.38
2018-10-18T08:58:17.332Z,71.94
2018-10-18T08:59:25.545Z,71.75
2018-10-18T09:00:33.478Z,71.75
2018-10-18T09:01:41.538Z,70.60
2018-10-18T09:02:49.600Z,71.66
2018-10-18T09:03:57.677Z,72.13
2018-10-18T09:05:05.785Z,71.37
2018-10-18T09:06:13.810Z,71.84
2018-10-18T09:07:21.886Z,69.87
2018-10-18T09:08:29.951Z,70.12
2018-10-18T09:09:38.004Z,69.64
2018-10-18T09:10:46.130Z,69.58
2018-10-18T09:11:54.160Z,71.17
2018-10-18T09:13:02.290Z,70.73
2018-10-18T09:14:10.323Z,70.15
2018-10-18T09:15:18.333Z,69.87
2018-10-18T09:16:26.422Z,70.64
2018-10-18T09:17:34.487Z,70.06
2018-10-18T09:18:42.552Z,69.68
2018-10-18T09:19:50.619Z,70.06
2018-10-18T09:20:58.670Z,69.29
2018-10-18T09:22:06.764Z,70.73
2018-10-18T09:23:14.853Z,69.90
2018-10-18T09:24:22.975Z,68.37
2018-10-18T09:25:30.971Z,69.33
2018-10-18T09:26:39.037Z,69.33
2018-10-18T09:27:47.109Z,70.19
2018-10-18T09:28:55.173Z,68.27
2018-10-18T09:30:03.238Z,70.00
2018-10-18T09:31:11.386Z,69.13
2018-10-18T09:32:19.383Z,68.56
2018-10-18T09:33:27.440Z,69.90
2018-10-18T09:34:35.536Z,68.95
2018-10-18T09:35:43.585Z,67.69
2018-10-18T09:36:51.657Z,68.18
2018-10-18T09:37:59.719Z,68.27
2018-10-18T09:39:07.786Z,68.91
2018-10-18T09:40:15.847Z,71.15
2018-10-18T09:41:23.916Z,70.67
2018-10-18T09:42:31.998Z,70.38
2018-10-18T09:43:40.049Z,70.00
2018-10-18T09:44:48.170Z,67.22
2018-10-18T09:45:56.195Z,68.56
2018-10-18T09:47:04.260Z,67.83
2018-10-18T09:48:12.331Z,68.56
2018-10-18T09:49:20.399Z,69.52
2018-10-18T09:50:28.439Z,70.57
2018-10-18T09:51:36.531Z,69.23
2018-10-18T09:52:44.619Z,68.37
2018-10-18T09:53:52.676Z,68.18
2018-10-18T09:55:00.814Z,69.33
2018-10-18T09:56:08.878Z,68.08
2018-10-18T09:57:16.868Z,69.04
2018-10-18T09:58:24.935Z,70.19
2018-10-18T09:59:33.017Z,70.19
2018-10-18T10:00:41.081Z,70.03
2018-10-18T10:01:49.137Z,69.74
2018-10-18T10:02:57.212Z,67.35
2018-10-18T10:04:05.306Z,69.46
2018-10-18T10:05:13.355Z,69.56
2018-10-18T10:06:21.418Z,68.50
2018-10-18T10:07:29.496Z,68.79
2018-10-18T10:08:37.566Z,67.92
2018-10-18T10:09:45.627Z,69.74
2018-10-18T10:10:53.712Z,68.98
2018-10-18T10:12:01.773Z,67.54
2018-10-18T10:13:09.999Z,66.80
2018-10-18T10:14:17.905Z,67.06
2018-10-18T10:15:25.976Z,68.50
2018-10-18T10:16:34.027Z,67.16
2018-10-18T10:17:42.208Z,67.25
2018-10-18T10:18:50.182Z,67.06
2018-10-18T10:19:58.230Z,68.98
2018-10-18T10:21:06.313Z,67.63
2018-10-18T10:22:14.385Z,67.83
2018-10-18T10:23:22.448Z,68.02
2018-10-18T10:24:30.559Z,66.67
2018-10-18T10:25:38.565Z,66.71
2018-10-18T10:26:46.670Z,67.47
2018-10-18T10:27:54.734Z,66.61
2018-10-18T10:29:02.787Z,66.67
2018-10-18T10:30:10.861Z,68.34
2018-10-18T10:31:19.004Z,67.19
2018-10-18T10:32:26.998Z,65.84
2018-10-18T10:33:35.164Z,66.61
2018-10-18T10:34:43.133Z,65.94
2018-10-18T10:35:51.207Z,65.94
2018-10-18T10:36:59.357Z,66.19
2018-10-18T10:38:07.339Z,66.00
2018-10-18T10:39:15.507Z,66.77
2018-10-18T10:40:23.479Z,68.50
2018-10-18T10:41:31.560Z,65.91
2018-10-18T10:42:39.629Z,65.52
2018-10-18T10:43:47.695Z,65.43
2018-10-18T10:44:55.754Z,66.49
2018-10-18T10:46:03.852Z,65.33
2018-10-18T10:47:11.896Z,66.58
2018-10-18T10:48:20.049Z,64.66
2018-10-18T10:49:28.009Z,65.33
2018-10-18T10:50:36.102Z,64.66
2018-10-18T10:51:44.163Z,65.05
2018-10-18T10:52:52.228Z,64.09
2018-10-18T10:54:00.336Z,65.62
2018-10-18T10:55:08.372Z,65.43
2018-10-18T10:56:16.554Z,64.95
2018-10-18T10:57:24.500Z,64.37
2018-10-18T10:58:32.566Z,66.19
2018-10-18T10:59:40.650Z,66.58
2018-10-18T11:00:48.688Z,64.56
2018-10-18T11:01:56.788Z,64.95
2018-10-18T11:03:04.930Z,65.94
2018-10-18T11:04:12.924Z,66.23
2018-10-18T11:05:20.995Z,64.79
2018-10-18T11:06:29.044Z,64.50
2018-10-18T11:07:37.122Z,66.61
2018-10-18T11:08:45.190Z,63.48
2018-10-18T11:09:53.257Z,63.57
2018-10-18T11:11:01.349Z,63.76
2018-10-18T11:12:09.487Z,63.86
2018-10-18T11:13:17.462Z,63.09
2018-10-18T11:14:25.545Z,63.67
2018-10-18T11:15:33.602Z,65.20
2018-10-18T11:16:41.687Z,63.09
2018-10-18T11:17:49.744Z,62.61
2018-10-18T11:18:57.810Z,64.02
2018-10-18T11:20:05.916Z,64.79
2018-10-18T11:21:14.057Z,63.67
2018-10-18T11:22:22.005Z,63.64
2018-10-18T11:23:30.089Z,63.73
2018-10-18T11:24:38.203Z,63.45
2018-10-18T11:25:46.226Z,64.69
2018-10-18T11:26:54.328Z,65.20
2018-10-18T11:28:02.352Z,63.86
2018-10-18T11:29:10.421Z,63.38
2018-10-18T11:30:18.566Z,63.38
2018-10-18T11:31:26.566Z,63.09
2018-10-18T11:32:34.638Z,63.38
2018-10-18T11:33:42.708Z,63.48
2018-10-18T11:34:50.759Z,63.76
2018-10-18T11:35:58.868Z,63.28
2018-10-18T11:37:06.927Z,62.52
2018-10-18T11:38:15.039Z,62.04
2018-10-18T11:39:23.050Z,62.61
2018-10-18T11:40:31.103Z,62.52
2018-10-18T11:41:39.176Z,62.52
2018-10-18T11:42:47.361Z,61.27
2018-10-18T11:43:55.324Z,62.32
2018-10-18T11:45:03.384Z,62.29
2018-10-18T11:46:11.462Z,62.52
2018-10-18T11:47:19.530Z,62.52
2018-10-18T11:48:27.590Z,62.48
2018-10-18T11:49:35.663Z,62.48
2018-10-18T11:50:43.727Z,63.28
2018-10-18T11:51:51.848Z,62.71
2018-10-18T11:52:59.871Z,61.84
2018-10-18T11:54:07.977Z,59.92
2018-10-18T11:55:16.007Z,59.54
2018-10-18T11:56:24.075Z,59.64
2018-10-18T11:57:32.128Z,60.69
2018-10-18T11:58:40.305Z,59.83
2018-10-18T11:59:48.257Z,59.64
2018-10-18T12:00:56.336Z,58.58
2018-10-18T12:02:04.444Z,59.44
2018-10-18T12:03:12.485Z,59.54
2018-10-18T12:04:20.553Z,58.77
2018-10-18T12:05:28.597Z,58.87
2018-10-18T12:06:36.684Z,59.64
2018-10-18T12:07:44.759Z,58.77
2018-10-18T12:08:52.833Z,60.31
2018-10-18T12:10:00.897Z,60.50
2018-10-18T12:11:08.979Z,58.39
2018-10-18T12:12:17.029Z,58.96
2018-10-18T12:13:25.111Z,58.77
2018-10-18T12:14:33.171Z,58.67
2018-10-18T12:15:41.219Z,58.00
2018-10-18T12:16:49.306Z,57.90
2018-10-18T12:17:57.372Z,57.43
2018-10-18T12:19:05.456Z,58.10
2018-10-18T12:20:13.663Z,57.33
2018-10-18T12:21:21.615Z,58.96
2018-10-18T12:22:29.676Z,58.29
2018-10-18T12:23:37.708Z,57.90
2018-10-18T12:24:45.791Z,58.10
2018-10-18T12:25:53.911Z,58.96
2018-10-18T12:27:02.014Z,56.98
2018-10-18T12:28:09.975Z,57.84
2018-10-18T12:29:18.131Z,56.95
2018-10-18T12:30:26.123Z,57.43
2018-10-18T12:31:34.194Z,57.81
2018-10-18T12:32:42.256Z,57.23
2018-10-18T12:33:50.333Z,57.81
2018-10-18T12:34:58.381Z,57.52
2018-10-18T12:36:06.471Z,58.48
2018-10-18T12:37:14.530Z,57.52
2018-10-18T12:38:22.614Z,57.71
2018-10-18T12:39:30.744Z,58.67
2018-10-18T12:40:38.745Z,59.44
2018-10-18T12:41:46.841Z,57.81
2018-10-18T12:42:54.886Z,58.48
2018-10-18T12:44:03.041Z,59.25
2018-10-18T12:45:11.020Z,58.87
2018-10-18T12:46:19.085Z,59.83
2018-10-18T12:47:27.156Z,60.31
2018-10-18T12:48:35.340Z,59.64
2018-10-18T12:49:43.294Z,59.83
2018-10-18T12:50:51.374Z,58.32
2018-10-18T12:51:59.433Z,58.42
2018-10-18T12:53:07.496Z,58.20
2018-10-18T12:54:15.700Z,59.16
2018-10-18T12:55:23.638Z,59.76
2018-10-18T12:56:31.700Z,57.84
2018-10-18T12:57:39.780Z,58.51
2018-10-18T12:58:47.845Z,57.17
2018-10-18T12:59:55.935Z,58.70
2018-10-18T13:01:03.974Z,57.84
2018-10-18T13:02:12.254Z,58.80
2018-10-18T13:03:20.113Z,57.75
2018-10-18T13:04:28.157Z,57.36
2018-10-18T13:05:36.251Z,58.13
2018-10-18T13:06:44.316Z,57.71
2018-10-18T13:07:52.395Z,57.07
2018-10-18T13:09:00.443Z,56.66
2018-10-18T13:10:08.496Z,56.95
2018-10-18T13:11:16.593Z,57.81
2018-10-18T13:12:24.822Z,56.88
2018-10-18T13:13:32.724Z,58.70
2018-10-18T13:14:40.818Z,58.89
2018-10-18T13:15:48.856Z,56.21
2018-10-18T13:16:56.954Z,56.49
2018-10-18T13:18:05.081Z,57.45
2018-10-18T13:19:13.080Z,56.49
2018-10-18T13:20:21.135Z,56.30
2018-10-18T13:21:29.211Z,56.01
2018-10-18T13:22:37.279Z,56.78
2018-10-18T13:23:45.356Z,56.11
2018-10-18T13:24:53.412Z,57.07
2018-10-18T13:26:01.583Z,57.77
2018-10-18T13:27:09.561Z,56.33
2018-10-18T13:28:17.626Z,56.91
2018-10-18T13:29:25.705Z,55.08
2018-10-18T13:30:33.762Z,55.46
2018-10-18T13:31:41.841Z,56.14
2018-10-18T13:32:49.901Z,55.66
2018-10-18T13:33:58.013Z,55.85
2018-10-18T13:35:06.041Z,55.27
2018-10-18T13:36:14.142Z,54.60
2018-10-18T13:37:22.170Z,56.49
2018-10-18T13:38:30.250Z,57.10
2018-10-18T13:39:38.288Z,55.66
2018-10-18T13:40:46.416Z,55.46
2018-10-18T13:41:54.505Z,54.60
2018-10-18T13:43:02.516Z,55.37
2018-10-18T13:44:10.643Z,53.64
2018-10-18T13:45:18.647Z,55.05
2018-10-18T13:46:26.862Z,54.38
2018-10-18T13:47:34.785Z,54.47
2018-10-18T13:48:42.868Z,55.34
2018-10-18T13:49:50.919Z,55.34
2018-10-18T13:50:58.987Z,55.82
2018-10-18T13:52:07.069Z,57.26
2018-10-18T13:53:15.126Z,55.73
2018-10-18T13:54:23.198Z,55.73
2018-10-18T13:55:31.281Z,55.73
2018-10-18T13:56:39.351Z,53.90
2018-10-18T13:57:47.406Z,55.15
2018-10-18T13:58:55.534Z,55.15
2018-10-18T14:00:03.612Z,55.79
2018-10-18T14:01:11.613Z,56.21
2018-10-18T14:02:19.798Z,55.53
2018-10-18T14:03:27.753Z,56.59
2018-10-18T14:04:35.810Z,55.82
2018-10-18T14:05:44.065Z,55.91
2018-10-18T14:06:51.966Z,56.46
2018-10-18T14:08:00.122Z,56.66
2018-10-18T14:09:08.073Z,57.26
2018-10-18T14:10:16.166Z,56.78
2018-10-18T14:11:24.226Z,55.41
2018-10-18T14:12:32.293Z,56.18
2018-10-18T14:13:40.367Z,56.76
2018-10-18T14:14:48.409Z,56.46
2018-10-18T14:15:56.507Z,56.18
2018-10-18T14:17:04.631Z,56.08
2018-10-18T14:18:12.646Z,55.60
2018-10-18T14:19:20.703Z,56.85
2018-10-18T14:20:28.745Z,55.60
2018-10-18T14:21:36.844Z,56.37
2018-10-18T14:22:44.908Z,55.41
2018-10-18T14:23:52.980Z,56.46
2018-10-18T14:25:01.032Z,56.66
2018-10-18T14:26:09.153Z,56.95
2018-10-18T14:27:17.179Z,57.23
2018-10-18T14:28:25.256Z,55.22
2018-10-18T14:29:33.319Z,56.18
2018-10-18T14:30:41.448Z,56.46
2018-10-18T14:31:49.461Z,56.76
2018-10-18T14:32:57.523Z,56.27
2018-10-18T14:34:05.597Z,57.04
2018-10-18T14:35:13.763Z,57.33
2018-10-18T14:36:21.722Z,59.25